Time;durP1;ratioP1;P1;durP2;ratioP2;P2;SDS_P1;SDS_P2;PMS_P1;PMS_P2;Temp;Humidity;BMP_temperature;BMP_pressure;BME280_temperature;BME280_humidity;BME280_pressure;Samples;Min_cycle;Max_cycle;Signal;HPM_P1;HPM_P2
2021/07/22 00:00:40;;;;;;;12.95;6.43;;;21.80;76.20;;;;;;4992241;28;20407;-75
2021/07/22 00:03:06;;;;;;;9.65;6.32;;;21.80;76.20;;;;;;4992188;28;20026;-74
2021/07/22 00:05:31;;;;;;;8.90;5.85;;;21.80;76.00;;;;;;4992166;28;20018;-75
2021/07/22 00:08:01;;;;;;;9.73;5.72;;;21.80;75.90;;;;;;4992737;28;20027;-75
2021/07/22 00:10:27;;;;;;;7.13;4.97;;;21.80;76.00;;;;;;5001010;28;20457;-75
2021/07/22 00:12:53;;;;;;;14.68;5.57;;;21.80;75.90;;;;;;5006013;28;20026;-75
2021/07/22 00:15:18;;;;;;;10.43;6.93;;;21.80;75.90;;;;;;4993811;28;20045;-75
2021/07/22 00:17:44;;;;;;;9.57;7.10;;;21.80;75.90;;;;;;4992848;28;20053;-75
2021/07/22 00:20:10;;;;;;;10.80;5.55;;;21.80;75.90;;;;;;4992082;28;20030;-75
2021/07/22 00:22:37;;;;;;;9.00;5.80;;;21.80;75.80;;;;;;4992564;28;20053;-75
2021/07/22 00:25:07;;;;;;;7.60;5.60;;;21.80;75.60;;;;;;4995644;28;20029;-75
2021/07/22 00:27:33;;;;;;;8.18;5.75;;;21.90;75.60;;;;;;4995520;28;20063;-75
2021/07/22 00:29:59;;;;;;;7.65;5.40;;;21.80;75.40;;;;;;4995523;28;20050;-75
2021/07/22 00:32:25;;;;;;;10.48;5.57;;;21.80;75.40;;;;;;4995739;28;20113;-76
2021/07/22 00:34:50;;;;;;;9.48;6.60;;;21.80;75.60;;;;;;4995938;28;20034;-76
2021/07/22 00:37:19;;;;;;;8.82;5.75;;;21.80;75.60;;;;;;4996263;28;20046;-76
2021/07/22 00:39:45;;;;;;;5.95;4.75;;;21.80;75.70;;;;;;4978425;28;20473;-74
2021/07/22 00:42:11;;;;;;;6.13;4.45;;;21.70;75.70;;;;;;4995287;28;20065;-76
2021/07/22 00:44:36;;;;;;;6.10;4.32;;;21.70;75.80;;;;;;4995368;28;20050;-76
2021/07/22 00:47:02;;;;;;;12.98;4.30;;;21.70;75.80;;;;;;4978047;28;20027;-74
2021/07/22 00:49:28;;;;;;;6.80;4.20;;;21.70;75.80;;;;;;4995180;28;20031;-74
2021/07/22 00:51:54;;;;;;;5.05;4.20;;;21.60;75.70;;;;;;4995000;28;20038;-74
2021/07/22 00:54:21;;;;;;;8.57;4.38;;;21.60;75.80;;;;;;4995110;28;20027;-75
2021/07/22 00:56:47;;;;;;;7.18;4.15;;;21.60;75.80;;;;;;4995043;28;20030;-75
2021/07/22 00:59:13;;;;;;;9.43;3.95;;;21.50;75.70;;;;;;4995019;28;20027;-75
2021/07/22 01:01:38;;;;;;;7.32;4.30;;;21.50;75.70;;;;;;4995017;28;20388;-75
2021/07/22 01:04:04;;;;;;;6.57;4.00;;;21.50;75.70;;;;;;4995124;28;20061;-75
2021/07/22 01:06:30;;;;;;;9.27;4.75;;;21.50;75.80;;;;;;4995016;28;20053;-75
2021/07/22 01:08:57;;;;;;;7.82;4.00;;;21.40;75.70;;;;;;4994789;28;20490;-75
2021/07/22 01:11:22;;;;;;;7.65;4.05;;;21.40;75.70;;;;;;4994623;28;20019;-75
2021/07/22 01:13:48;;;;;;;7.63;4.30;;;21.30;75.60;;;;;;4994694;28;20177;-75
2021/07/22 01:16:14;;;;;;;6.78;3.95;;;21.30;75.60;;;;;;4994728;28;20034;-75
2021/07/22 01:18:40;;;;;;;6.10;4.10;;;21.30;75.70;;;;;;4994729;28;20443;-75
2021/07/22 01:21:08;;;;;;;8.63;3.95;;;21.30;75.80;;;;;;4994665;28;20034;-75
2021/07/22 01:23:33;;;;;;;6.40;4.15;;;21.20;75.80;;;;;;4994626;28;20041;-75
2021/07/22 01:25:59;;;;;;;6.43;3.88;;;21.20;75.80;;;;;;4994553;28;20026;-75
2021/07/22 01:28:25;;;;;;;8.88;3.88;;;21.20;75.90;;;;;;4994714;28;20022;-75
2021/07/22 01:30:51;;;;;;;6.88;3.88;;;21.20;75.90;;;;;;4994535;28;20023;-75
2021/07/22 01:33:16;;;;;;;7.35;4.18;;;21.20;75.90;;;;;;4994300;28;20472;-75
2021/07/22 01:35:42;;;;;;;4.75;4.20;;;21.10;75.90;;;;;;4993984;28;20354;-75
2021/07/22 01:38:08;;;;;;;7.00;4.00;;;21.10;75.90;;;;;;4977047;28;20041;-75
2021/07/22 01:40:34;;;;;;;6.95;4.00;;;21.10;75.80;;;;;;4976977;28;20030;-75
2021/07/22 01:43:04;;;;;;;6.93;3.80;;;21.10;75.80;;;;;;4994272;28;20495;-75
2021/07/22 01:45:30;;;;;;;6.53;3.60;;;21.10;75.70;;;;;;4994294;28;20394;-75
2021/07/22 01:47:56;;;;;;;7.28;3.58;;;21.10;75.60;;;;;;4994061;28;20026;-75
2021/07/22 01:50:22;;;;;;;5.22;3.45;;;21.10;75.60;;;;;;4994107;28;20038;-75
2021/07/22 01:52:47;;;;;;;5.63;4.18;;;21.10;75.70;;;;;;4994116;28;20037;-75
2021/07/22 01:55:13;;;;;;;7.80;3.60;;;21.10;75.60;;;;;;4993953;28;20034;-75
2021/07/22 01:57:39;;;;;;;5.63;3.58;;;21.10;75.80;;;;;;4993890;28;20033;-74
2021/07/22 02:00:06;;;;;;;7.53;3.97;;;21.10;75.80;;;;;;4994069;28;20385;-74
2021/07/22 02:02:32;;;;;;;5.25;3.55;;;21.10;75.70;;;;;;4993796;28;20778;-74
2021/07/22 02:04:59;;;;;;;7.05;3.35;;;21.00;75.70;;;;;;4996455;28;20120;-74
2021/07/22 02:07:25;;;;;;;6.20;5.32;;;21.10;75.80;;;;;;5008423;28;20018;-74
2021/07/22 02:09:51;;;;;;;6.00;3.70;;;21.10;75.70;;;;;;4997296;28;20022;-73
2021/07/22 02:12:17;;;;;;;7.22;4.63;;;21.10;75.50;;;;;;4994084;28;20441;-74
2021/07/22 02:14:42;;;;;;;8.38;4.65;;;21.00;75.30;;;;;;4993528;28;20023;-73
2021/07/22 02:17:08;;;;;;;8.18;5.00;;;21.00;75.20;;;;;;4976065;28;20074;-75
2021/07/22 02:19:35;;;;;;;13.80;5.55;;;21.00;75.10;;;;;;4993545;28;20030;-75
2021/07/22 02:22:01;;;;;;;11.60;4.68;;;20.90;75.00;;;;;;4993484;28;20427;-73
2021/07/22 02:24:27;;;;;;;7.07;4.32;;;20.90;74.90;;;;;;4993301;28;20116;-73
2021/07/22 02:26:52;;;;;;;9.30;4.78;;;20.90;75.00;;;;;;4993341;28;20053;-72
2021/07/22 02:29:18;;;;;;;6.45;4.32;;;20.90;75.20;;;;;;4993281;28;20032;-74
2021/07/22 02:31:44;;;;;;;6.47;4.43;;;21.00;75.30;;;;;;4993370;28;20535;-74
2021/07/22 02:34:09;;;;;;;6.53;4.15;;;21.20;74.90;;;;;;4993334;28;20118;-74
2021/07/22 02:36:35;;;;;;;6.22;3.33;;;21.50;74.30;;;;;;4975769;28;20034;-74
2021/07/22 02:39:01;;;;;;;6.80;3.50;;;21.70;74.00;;;;;;4993197;28;20022;-74
2021/07/22 02:41:30;;;;;;;7.43;4.80;;;22.10;73.30;;;;;;4993016;28;20388;-74
2021/07/22 02:43:57;;;;;;;7.85;3.90;;;22.40;72.30;;;;;;4992929;28;20101;-74
2021/07/22 02:46:22;;;;;;;8.50;3.80;;;22.60;71.20;;;;;;4992103;28;20018;-74
2021/07/22 02:48:48;;;;;;;8.02;3.95;;;22.70;70.50;;;;;;4992931;28;20034;-74
2021/07/22 02:51:14;;;;;;;7.68;4.00;;;22.60;70.20;;;;;;4992847;28;20047;-74
2021/07/22 02:53:40;;;;;;;11.23;4.13;;;22.50;70.20;;;;;;4992951;28;20029;-75
2021/07/22 02:56:05;;;;;;;6.85;3.58;;;22.40;70.50;;;;;;4992912;28;20058;-74
2021/07/22 02:58:31;;;;;;;6.88;3.58;;;22.50;70.90;;;;;;4993188;28;20787;-73
2021/07/22 03:00:57;;;;;;;7.18;4.55;;;22.70;70.70;;;;;;4992760;28;20178;-73
2021/07/22 03:03:23;;;;;;;6.05;3.75;;;22.90;70.30;;;;;;4992841;28;20026;-74
2021/07/22 03:05:49;;;;;;;8.10;3.85;;;23.00;69.90;;;;;;4992975;28;20025;-74
2021/07/22 03:08:15;;;;;;;9.40;4.22;;;23.10;69.60;;;;;;4992708;28;20026;-74
2021/07/22 03:10:41;;;;;;;10.18;4.30;;;23.20;69.40;;;;;;4992832;28;20033;-74
2021/07/22 03:13:07;;;;;;;9.35;4.28;;;23.40;69.10;;;;;;4992757;28;20459;-74
2021/07/22 03:15:33;;;;;;;12.68;5.28;;;23.70;68.80;;;;;;4994174;28;20030;-75
2021/07/22 03:17:59;;;;;;;8.60;4.20;;;24.20;68.20;;;;;;4998212;28;20022;-75
2021/07/22 03:20:25;;;;;;;8.65;4.20;;;24.80;67.10;;;;;;4996240;28;20026;-74
2021/07/22 03:22:51;;;;;;;7.32;3.42;;;25.20;66.00;;;;;;4996549;28;20471;-75
2021/07/22 03:25:17;;;;;;;10.02;4.10;;;25.50;64.90;;;;;;4995104;28;20029;-75
2021/07/22 03:27:42;;;;;;;9.90;3.78;;;25.60;63.90;;;;;;4995336;28;20023;-75
2021/07/22 03:30:09;;;;;;;11.35;4.75;;;25.80;63.50;;;;;;4994561;28;20060;-75
2021/07/22 03:32:37;;;;;;;9.70;3.92;;;26.10;62.80;;;;;;4993303;28;20425;-75
2021/07/22 03:35:04;;;;;;;8.50;4.53;;;26.50;62.10;;;;;;4995270;28;20034;-75
2021/07/22 03:37:31;;;;;;;7.90;3.40;;;26.90;61.60;;;;;;4994273;28;20022;-74
2021/07/22 03:39:56;;;;;;;12.32;3.78;;;27.10;60.40;;;;;;4994104;28;20053;-74
2021/07/22 03:42:25;;;;;;;8.25;3.92;;;26.90;59.80;;;;;;4993310;28;20030;-74
2021/07/22 03:44:52;;;;;;;10.15;4.53;;;26.50;59.90;;;;;;4992944;28;20030;-74
2021/07/22 03:47:18;;;;;;;8.98;5.38;;;26.10;60.20;;;;;;4993457;28;20030;-74
2021/07/22 03:49:43;;;;;;;11.10;5.50;;;25.70;60.90;;;;;;4993533;28;20034;-75
2021/07/22 03:52:09;;;;;;;15.70;5.20;;;25.40;61.50;;;;;;4992286;28;20053;-75
2021/07/22 03:54:35;;;;;;;9.65;4.97;;;25.10;62.10;;;;;;4992570;28;20084;-74
2021/07/22 03:57:02;;;;;;;7.60;4.90;;;24.80;62.60;;;;;;4992553;28;20033;-74
2021/07/22 03:59:27;;;;;;;9.00;4.97;;;24.60;63.00;;;;;;4995969;28;20034;-74
2021/07/22 04:01:53;;;;;;;14.45;4.75;;;24.40;63.50;;;;;;4996650;28;20113;-77
2021/07/22 04:04:19;;;;;;;12.88;5.32;;;24.30;63.90;;;;;;4997010;28;20147;-78
2021/07/22 04:06:44;;;;;;;11.85;4.95;;;24.30;64.30;;;;;;5001244;28;20018;-76
2021/07/22 04:09:10;;;;;;;16.30;5.97;;;24.40;64.40;;;;;;5007872;28;20022;-77
2021/07/22 04:11:37;;;;;;;9.35;6.00;;;24.80;64.30;;;;;;5009317;28;20101;-77
2021/07/22 04:14:03;;;;;;;9.85;5.03;;;25.20;63.80;;;;;;5004897;28;20026;-76
2021/07/22 04:16:29;;;;;;;14.80;4.90;;;25.90;63.20;;;;;;4996216;28;20030;-76
2021/07/22 04:18:54;;;;;;;8.75;4.82;;;27.10;62.30;;;;;;4995767;28;20476;-75
2021/07/22 04:21:20;;;;;;;12.02;5.00;;;28.60;60.40;;;;;;4995498;28;20466;-76
2021/07/22 04:23:47;;;;;;;9.50;4.43;;;30.00;58.10;;;;;;4995385;28;20053;-76
2021/07/22 04:26:16;;;;;;;11.25;6.00;;;31.40;55.70;;;;;;4995432;28;20109;-76
2021/07/22 04:28:43;;;;;;;8.57;4.13;;;32.60;53.20;;;;;;4996916;28;20062;-76
2021/07/22 04:31:13;;;;;;;11.95;4.70;;;33.70;51.50;;;;;;4996235;28;20050;-76
2021/07/22 04:33:39;;;;;;;7.50;4.18;;;34.50;49.80;;;;;;4995528;28;20033;-76
2021/07/22 04:36:05;;;;;;;8.40;4.63;;;35.20;48.50;;;;;;4977403;28;20042;-75
2021/07/22 04:38:34;;;;;;;10.80;4.43;;;36.00;47.40;;;;;;4995695;28;20040;-75
2021/07/22 04:41:02;;;;;;;12.77;4.30;;;36.50;46.20;;;;;;4995273;28;20033;-75
2021/07/22 04:43:28;;;;;;;6.30;3.95;;;37.00;45.20;;;;;;4994630;28;20068;-75
2021/07/22 04:45:53;;;;;;;6.07;4.00;;;37.30;44.30;;;;;;4995763;28;20030;-75
2021/07/22 04:48:19;;;;;;;15.20;5.25;;;37.60;43.80;;;;;;4995942;28;20029;-75
2021/07/22 04:50:45;;;;;;;13.52;5.05;;;37.90;43.40;;;;;;4995331;28;20050;-76
2021/07/22 04:53:11;;;;;;;8.70;4.13;;;38.30;42.80;;;;;;4994753;28;20108;-76
2021/07/22 04:55:36;;;;;;;7.38;4.47;;;38.80;42.40;;;;;;4994823;28;20068;-76
2021/07/22 04:58:02;;;;;;;9.32;4.57;;;39.20;41.80;;;;;;4994354;28;20037;-75
2021/07/22 05:00:28;;;;;;;5.68;4.45;;;39.50;41.20;;;;;;4994557;28;20481;-75
2021/07/22 05:02:58;;;;;;;8.75;4.10;;;39.80;40.60;;;;;;4993882;28;20031;-76
2021/07/22 05:05:25;;;;;;;8.87;3.93;;;40.10;40.00;;;;;;4993989;28;20019;-74
2021/07/22 05:07:51;;;;;;;9.10;5.80;;;40.30;39.70;;;;;;4994211;28;20022;-75
2021/07/22 05:10:17;;;;;;;8.38;4.22;;;40.40;39.50;;;;;;4993294;28;20093;-75
2021/07/22 05:12:43;;;;;;;7.47;3.95;;;40.70;39.20;;;;;;4994440;28;20508;-75
2021/07/22 05:15:09;;;;;;;11.55;4.10;;;41.00;38.90;;;;;;4994211;28;20027;-77
2021/07/22 05:17:38;;;;;;;14.63;4.45;;;41.40;38.50;;;;;;4994313;28;20076;-75
2021/07/22 05:20:05;;;;;;;8.88;4.32;;;41.70;38.00;;;;;;4994162;28;20073;-75
2021/07/22 05:22:31;;;;;;;13.30;3.88;;;41.90;37.70;;;;;;4994453;28;20030;-76
2021/07/22 05:24:57;;;;;;;13.50;5.32;;;42.20;37.40;;;;;;4996597;28;20025;-76
2021/07/22 05:27:23;;;;;;;9.35;4.63;;;42.40;37.20;;;;;;4994555;28;20030;-77
2021/07/22 05:29:49;;;;;;;10.13;4.47;;;42.60;37.10;;;;;;4993558;28;20034;-76
2021/07/22 05:32:14;;;;;;;7.13;4.40;;;42.80;36.90;;;;;;4993813;28;20093;-76
2021/07/22 05:34:40;;;;;;;12.25;4.28;;;43.10;36.80;;;;;;4993223;28;20033;-76
2021/07/22 05:37:11;;;;;;;10.18;4.28;;;43.30;36.50;;;;;;4993783;28;20042;-76
2021/07/22 05:39:36;;;;;;;;;;;43.40;36.10;;;;;;4993782;28;20065;-75
2021/07/22 05:42:03;;;;;;;9.93;4.68;;;43.60;36.90;;;;;;4993321;28;19942;-75
2021/07/22 05:44:29;;;;;;;7.97;4.40;;;43.80;36.10;;;;;;4993945;28;20037;-74
2021/07/22 05:46:55;;;;;;;7.00;4.40;;;43.80;35.70;;;;;;4993616;28;20022;-73
2021/07/22 05:49:21;;;;;;;18.48;5.38;;;43.90;35.50;;;;;;4993154;28;20365;-74
2021/07/22 05:51:47;;;;;;;8.68;4.40;;;44.00;35.40;;;;;;4992797;28;20050;-75
2021/07/22 05:54:12;;;;;;;8.63;4.80;;;44.20;35.20;;;;;;4993166;28;20088;-74
2021/07/22 05:56:38;;;;;;;9.07;4.60;;;44.40;35.10;;;;;;4975771;28;20057;-75
2021/07/22 05:59:04;;;;;;;9.38;4.20;;;44.50;35.00;;;;;;4993432;28;20035;-74
2021/07/22 06:01:30;;;;;;;9.30;4.30;;;44.50;35.00;;;;;;4993201;28;20019;-75
2021/07/22 06:03:55;;;;;;;9.35;5.00;;;44.60;34.70;;;;;;4992662;28;20110;-75
2021/07/22 06:06:21;;;;;;;11.07;4.88;;;44.70;34.70;;;;;;4992598;28;20156;-78
2021/07/22 06:08:47;;;;;;;8.35;4.40;;;44.70;34.70;;;;;;4975786;28;20025;-78
2021/07/22 06:11:13;;;;;;;4.28;3.80;;;44.70;34.70;;;;;;4993672;28;20394;-78
2021/07/22 06:13:39;;;;;;;7.55;4.28;;;44.60;34.60;;;;;;4993473;28;20029;-79
2021/07/22 06:16:10;;;;;;;6.22;3.83;;;44.60;34.70;;;;;;4993487;28;20046;-78
2021/07/22 06:18:36;;;;;;;12.95;4.47;;;44.60;34.60;;;;;;4993589;28;20022;-78
2021/07/22 06:21:02;;;;;;;9.68;4.25;;;44.60;34.60;;;;;;4993363;28;20030;-78
2021/07/22 06:23:27;;;;;;;10.52;4.25;;;44.60;34.40;;;;;;4975591;28;20030;-78
2021/07/22 06:26:00;;;;;;;14.75;5.10;;;44.70;34.50;;;;;;4993159;28;20099;-78
2021/07/22 06:28:26;;;;;;;8.27;4.65;;;44.70;34.30;;;;;;4992634;28;20472;-78
2021/07/22 06:30:53;;;;;;;8.65;5.40;;;44.70;34.40;;;;;;4992922;28;20038;-79
2021/07/22 06:33:19;;;;;;;10.35;4.60;;;44.70;34.40;;;;;;4992653;28;20136;-78
2021/07/22 06:35:44;;;;;;;6.57;4.00;;;44.80;34.40;;;;;;4992446;28;20466;-78
2021/07/22 06:38:10;;;;;;;5.90;4.40;;;44.70;34.50;;;;;;4992693;28;20076;-77
2021/07/22 06:40:36;;;;;;;11.05;7.40;;;44.60;34.50;;;;;;4992048;28;20062;-78
2021/07/22 06:43:02;;;;;;;9.23;4.80;;;44.50;34.50;;;;;;4992303;28;20105;-79
2021/07/22 06:45:28;;;;;;;8.85;5.30;;;44.50;34.60;;;;;;4991787;28;20022;-78
2021/07/22 06:47:53;;;;;;;11.35;4.57;;;44.50;34.70;;;;;;4992213;28;20029;-78
2021/07/22 06:50:19;;;;;;;10.35;4.28;;;44.50;34.70;;;;;;4974920;28;20434;-79
2021/07/22 06:52:45;;;;;;;12.35;5.05;;;44.40;34.70;;;;;;4975146;28;20030;-80
2021/07/22 06:55:11;;;;;;;4.90;3.88;;;44.20;34.70;;;;;;4992869;28;20122;-79
2021/07/22 06:57:37;;;;;;;8.18;4.22;;;44.20;34.90;;;;;;4992656;28;20033;-80
2021/07/22 07:00:04;;;;;;;9.77;4.53;;;44.30;35.00;;;;;;4992382;28;20042;-78
2021/07/22 07:02:30;;;;;;;4.82;4.43;;;44.30;34.90;;;;;;4992474;28;20030;-79
2021/07/22 07:04:56;;;;;;;7.82;3.90;;;44.40;34.90;;;;;;4992731;28;20034;-78
2021/07/22 07:07:21;;;;;;;9.75;4.28;;;44.20;34.80;;;;;;4992127;28;20126;-78
2021/07/22 07:09:47;;;;;;;9.27;4.22;;;44.00;34.70;;;;;;4992680;28;20450;-78
2021/07/22 07:12:13;;;;;;;4.38;3.40;;;44.00;34.90;;;;;;4992210;28;20014;-78
2021/07/22 07:14:38;;;;;;;5.63;4.43;;;43.90;35.00;;;;;;4992252;28;20105;-79
2021/07/22 07:17:04;;;;;;;5.95;3.60;;;43.80;34.90;;;;;;4992340;28;20439;-79
2021/07/22 07:19:30;;;;;;;8.65;3.92;;;43.80;35.10;;;;;;4975100;28;20033;-79
2021/07/22 07:21:56;;;;;;;8.63;3.50;;;43.70;35.10;;;;;;4992356;28;20023;-80
2021/07/22 07:24:22;;;;;;;9.52;3.67;;;43.80;35.20;;;;;;4992153;28;20061;-79
2021/07/22 07:26:47;;;;;;;8.75;3.70;;;43.60;35.00;;;;;;4991939;28;20388;-78
2021/07/22 07:29:13;;;;;;;7.13;3.53;;;43.40;35.00;;;;;;4991723;28;20030;-80
2021/07/22 07:31:40;;;;;;;8.57;3.80;;;43.30;35.20;;;;;;4992072;28;20077;-78
2021/07/22 07:34:06;;;;;;;3.47;3.17;;;43.20;35.40;;;;;;4995187;28;20030;-78
2021/07/22 07:36:32;;;;;;;9.27;4.05;;;43.10;35.20;;;;;;4995965;28;20492;-78
2021/07/22 07:38:58;;;;;;;5.82;3.20;;;42.80;35.10;;;;;;4995974;28;20030;-79
2021/07/22 07:41:24;;;;;;;6.57;4.05;;;42.60;35.10;;;;;;4995510;28;20104;-79
2021/07/22 07:43:49;;;;;;;5.68;4.53;;;42.40;35.20;;;;;;4977759;28;20026;-79
2021/07/22 07:46:15;;;;;;;14.38;4.15;;;42.20;35.20;;;;;;4997654;28;20073;-77
2021/07/22 07:48:41;;;;;;;6.25;3.65;;;42.00;35.50;;;;;;5015481;28;20096;-78
2021/07/22 07:51:08;;;;;;;7.40;3.47;;;42.00;35.80;;;;;;5015035;28;20821;-78
2021/07/22 07:53:34;;;;;;;5.50;3.22;;;41.80;35.60;;;;;;5015569;28;20384;-79
2021/07/22 07:56:00;;;;;;;7.47;3.05;;;41.60;35.60;;;;;;5015173;28;20022;-80
2021/07/22 07:58:26;;;;;;;8.40;3.40;;;41.30;35.50;;;;;;5014932;28;20436;-79
2021/07/22 08:00:51;;;;;;;7.25;3.50;;;41.20;35.60;;;;;;5015175;28;20054;-78
2021/07/22 08:03:19;;;;;;;9.55;3.28;;;41.00;35.50;;;;;;5014725;28;20034;-78
2021/07/22 08:05:46;;;;;;;4.57;3.00;;;40.80;35.30;;;;;;5015209;28;20026;-79
2021/07/22 08:08:12;;;;;;;10.15;3.80;;;40.30;35.60;;;;;;5015282;28;20046;-78
2021/07/22 08:10:40;;;;;;;8.00;3.33;;;39.80;36.10;;;;;;5015307;28;20072;-78
2021/07/22 08:13:10;;;;;;;7.90;3.65;;;39.40;36.30;;;;;;5014702;28;20022;-79
2021/07/22 08:15:37;;;;;;;6.72;2.80;;;38.90;36.70;;;;;;5014556;28;20065;-77
2021/07/22 08:18:03;;;;;;;11.55;3.60;;;38.60;37.30;;;;;;5014745;28;20037;-79
2021/07/22 08:20:29;;;;;;;7.82;3.40;;;38.20;37.70;;;;;;5014457;28;20018;-79
2021/07/22 08:22:55;;;;;;;4.13;2.33;;;38.00;37.90;;;;;;5014625;28;20030;-78
2021/07/22 08:25:23;;;;;;;6.05;2.83;;;37.70;37.90;;;;;;5014843;28;20037;-78
2021/07/22 08:27:48;;;;;;;9.02;3.50;;;37.40;38.10;;;;;;5014915;28;20018;-78
2021/07/22 08:30:14;;;;;;;3.45;2.85;;;37.20;38.50;;;;;;5014606;28;20052;-78
2021/07/22 08:32:40;;;;;;;6.70;3.40;;;36.90;38.50;;;;;;5014155;28;20029;-78
2021/07/22 08:35:06;;;;;;;5.20;3.30;;;36.70;38.80;;;;;;5014148;28;20524;-78
2021/07/22 08:37:32;;;;;;;5.70;2.55;;;36.50;39.10;;;;;;5015656;28;20065;-76
2021/07/22 08:40:00;;;;;;;9.70;3.00;;;36.30;39.20;;;;;;4998191;28;20057;-77
2021/07/22 08:42:27;;;;;;;7.35;4.05;;;36.10;39.40;;;;;;5016115;28;20105;-80
2021/07/22 08:44:53;;;;;;;4.65;2.90;;;35.90;39.50;;;;;;5014365;28;20366;-80
2021/07/22 08:47:19;;;;;;;4.78;2.80;;;35.80;40.00;;;;;;5015779;28;20018;-80
2021/07/22 08:49:44;;;;;;;6.40;3.05;;;35.70;40.20;;;;;;4996683;28;20033;-76
2021/07/22 08:52:11;;;;;;;10.07;2.50;;;35.60;40.40;;;;;;5014918;28;20137;-75
2021/07/22 08:54:38;;;;;;;3.33;2.90;;;35.60;40.30;;;;;;5014064;28;20022;-76
2021/07/22 08:57:16;;;;;;;8.02;2.92;;;35.40;40.10;;;;;;5013695;28;20112;-76
2021/07/22 08:59:46;;;;;;;12.23;3.72;;;35.40;40.10;;;;;;5013724;28;20033;-77
2021/07/22 09:02:37;;;;;;;;;;;;;;;;;;;;;
2021/07/22 09:05:07;;;;;;;7.75;3.50;;;35.30;40.20;;;;;;5014367;28;20028;-76
2021/07/22 09:07:43;;;;;;;9.63;3.67;;;35.20;40.00;;;;;;5014057;28;20022;-78
2021/07/22 09:10:19;;;;;;;5.35;3.20;;;35.10;40.00;;;;;;5014018;28;20018;-78
2021/07/22 09:12:51;;;;;;;2.97;2.75;;;34.90;39.60;;;;;;5013412;28;20022;-76
2021/07/22 09:15:26;;;;;;;8.27;2.67;;;34.70;39.40;;;;;;5014308;28;20026;-82
2021/07/22 09:17:52;;;;;;;8.43;3.15;;;34.40;39.40;;;;;;4996707;28;20488;-78
2021/07/22 09:20:32;;;;;;;15.60;3.25;;;34.10;39.50;;;;;;5014290;28;20033;-78
2021/07/22 09:23:03;;;;;;;10.05;2.97;;;33.90;39.80;;;;;;5013926;28;20030;-79
2021/07/22 09:25:43;;;;;;;4.60;2.50;;;33.70;39.70;;;;;;5013887;28;20408;-78
2021/07/22 09:28:13;;;;;;;6.13;3.08;;;33.60;39.80;;;;;;5013640;28;20336;-76
2021/07/22 09:30:38;;;;;;;3.15;2.80;;;33.50;40.40;;;;;;4995545;28;20030;-75
2021/07/22 09:33:05;;;;;;;5.53;3.20;;;33.50;40.70;;;;;;5013169;28;20036;-76
2021/07/22 09:35:35;;;;;;;5.82;2.60;;;33.50;41.00;;;;;;5013641;28;20037;-79
2021/07/22 09:38:10;;;;;;;3.53;2.63;;;33.50;41.20;;;;;;5013457;28;20117;-74
2021/07/22 09:40:36;;;;;;;6.85;2.92;;;33.30;41.20;;;;;;5013606;28;20022;-76
2021/07/22 09:43:02;;;;;;;8.90;3.03;;;33.30;41.10;;;;;;5012916;28;20037;-75
2021/07/22 09:45:31;;;;;;;6.10;3.45;;;33.20;41.20;;;;;;5012684;28;20379;-74
2021/07/22 09:48:08;;;;;;;9.05;3.40;;;33.10;41.40;;;;;;5013348;28;20018;-75
2021/07/22 09:50:44;;;;;;;6.97;2.83;;;33.10;41.40;;;;;;5012696;28;20107;-75
2021/07/22 09:53:12;;;;;;;8.57;3.20;;;33.00;41.70;;;;;;5012841;28;20022;-75
2021/07/22 09:55:42;;;;;;;9.57;3.35;;;32.90;41.70;;;;;;5012193;28;20404;-76
2021/07/22 09:58:10;;;;;;;5.07;2.87;;;32.90;41.80;;;;;;5012706;28;20092;-76
2021/07/22 10:00:41;;;;;;;8.27;3.33;;;32.80;41.90;;;;;;5012968;28;20310;-75
2021/07/22 10:03:12;;;;;;;18.10;3.22;;;32.80;42.00;;;;;;5011903;28;20033;-75
2021/07/22 10:06:04;;;;;;;4.47;2.72;;;32.70;41.70;;;;;;5027457;28;20036;-76
2021/07/22 10:08:33;;;;;;;9.52;5.07;;;32.60;41.90;;;;;;5011970;28;20093;-77
2021/07/22 10:11:00;;;;;;;8.20;2.70;;;32.60;41.90;;;;;;5011996;28;20465;-75
2021/07/22 10:13:28;;;;;;;9.80;2.80;;;32.50;41.70;;;;;;5012110;28;20084;-76
2021/07/22 10:15:57;;;;;;;9.85;3.22;;;32.40;41.90;;;;;;5012004;28;20060;-77
2021/07/22 10:18:26;;;;;;;8.38;3.47;;;32.40;42.20;;;;;;5012070;28;20026;-75
2021/07/22 10:20:55;;;;;;;5.85;2.85;;;32.40;42.20;;;;;;5011911;28;20054;-76
2021/07/22 10:23:22;;;;;;;7.55;3.13;;;32.30;42.00;;;;;;5011748;28;20349;-78
2021/07/22 10:25:49;;;;;;;8.25;3.67;;;32.30;42.00;;;;;;5011590;28;20037;-75
2021/07/22 10:28:16;;;;;;;6.45;3.15;;;32.30;42.00;;;;;;5011406;28;20383;-76
2021/07/22 10:30:45;;;;;;;6.18;3.28;;;32.30;42.00;;;;;;5011750;28;20014;-75
2021/07/22 10:33:12;;;;;;;3.30;2.67;;;32.30;41.80;;;;;;5011457;28;20029;-76
2021/07/22 10:35:38;;;;;;;3.40;2.63;;;32.30;41.60;;;;;;5012034;28;20034;-76
2021/07/22 10:38:17;;;;;;;4.88;3.25;;;32.20;41.50;;;;;;5011984;28;20037;-75
2021/07/22 10:40:57;;;;;;;5.53;2.40;;;32.00;41.70;;;;;;5011487;28;20389;-76
2021/07/22 10:43:35;;;;;;;6.95;2.50;;;31.70;41.90;;;;;;5011488;28;20033;-76
2021/07/22 10:46:09;;;;;;;7.80;2.90;;;31.40;42.20;;;;;;5011538;28;20487;-77
2021/07/22 10:48:36;;;;;;;6.82;3.80;;;31.30;42.90;;;;;;5011479;28;20041;-77
2021/07/22 10:51:06;;;;;;;8.65;3.05;;;31.30;43.30;;;;;;5012128;28;20121;-76
2021/07/22 10:53:39;;;;;;;9.68;3.05;;;31.40;43.20;;;;;;5012078;28;20026;-75
2021/07/22 10:56:07;;;;;;;5.30;2.90;;;31.50;42.80;;;;;;5011519;28;20037;-76
2021/07/22 10:58:33;;;;;;;7.18;3.30;;;31.50;42.40;;;;;;5011540;28;20030;-77
2021/07/22 11:01:03;;;;;;;5.18;3.15;;;31.50;42.80;;;;;;5011747;28;20499;-77
2021/07/22 11:03:40;;;;;;;6.50;2.90;;;31.40;42.70;;;;;;5011226;28;20048;-77
2021/07/22 11:06:16;;;;;;;4.30;2.85;;;31.50;43.10;;;;;;5011343;28;20029;-76
2021/07/22 11:08:44;;;;;;;4.07;3.05;;;31.40;43.20;;;;;;5010286;28;20022;-76
2021/07/22 11:11:13;;;;;;;7.25;3.00;;;31.40;43.10;;;;;;5011224;28;20021;-74
2021/07/22 11:13:40;;;;;;;3.58;2.78;;;31.30;43.00;;;;;;5011251;28;20021;-75
2021/07/22 11:16:28;;;;;;;3.60;2.80;;;31.20;42.70;;;;;;4993257;28;20410;-74
2021/07/22 11:19:13;;;;;;;3.85;2.60;;;31.00;42.80;;;;;;5025881;28;20435;-74
2021/07/22 11:21:47;;;;;;;3.22;2.67;;;30.80;42.40;;;;;;5011252;28;20033;-74
2021/07/22 11:24:19;;;;;;;7.63;3.08;;;30.80;42.60;;;;;;5010769;28;20048;-74
2021/07/22 11:26:50;;;;;;;6.97;3.03;;;30.60;42.70;;;;;;5011272;28;20029;-77
2021/07/22 11:29:17;;;;;;;5.20;3.00;;;30.50;43.30;;;;;;5011128;28;20040;-77
2021/07/22 11:31:55;;;;;;;8.18;2.97;;;30.40;43.50;;;;;;5010810;28;20468;-76
2021/07/22 11:34:33;;;;;;;4.88;3.20;;;30.40;44.00;;;;;;5011275;28;20495;-78
2021/07/22 11:37:00;;;;;;;2.83;2.63;;;30.30;43.80;;;;;;5019125;28;20038;-78
2021/07/22 11:39:37;;;;;;;8.13;2.88;;;30.40;44.10;;;;;;4991602;28;20038;-75
2021/07/22 11:42:21;;;;;;;9.60;2.75;;;30.40;43.80;;;;;;4994918;28;20062;-75
2021/07/22 11:45:04;;;;;;;5.22;2.45;;;30.40;43.60;;;;;;4991007;28;20098;-77
2021/07/22 11:47:31;;;;;;;5.35;2.80;;;30.40;43.40;;;;;;4991606;28;20026;-76
2021/07/22 11:49:57;;;;;;;8.55;2.70;;;30.30;43.70;;;;;;4991181;28;20023;-77
2021/07/22 11:52:32;;;;;;;7.15;2.97;;;30.20;44.00;;;;;;4974113;28;20030;-78
2021/07/22 11:55:11;;;;;;;6.82;3.35;;;30.20;44.30;;;;;;4991345;28;20033;-77
2021/07/22 11:57:38;;;;;;;5.55;2.60;;;30.20;44.00;;;;;;4991661;28;20032;-76
2021/07/22 12:00:18;;;;;;;6.25;2.67;;;30.20;43.70;;;;;;4991550;28;20085;-76
2021/07/22 12:02:46;;;;;;;5.13;2.50;;;30.00;43.90;;;;;;4990880;28;20027;-77
2021/07/22 12:05:12;;;;;;;6.03;3.13;;;29.80;43.80;;;;;;4991168;28;20081;-77
2021/07/22 12:07:38;;;;;;;3.95;3.22;;;29.80;44.10;;;;;;4991239;28;20022;-77
2021/07/22 12:10:05;;;;;;;4.50;2.80;;;29.70;44.60;;;;;;4991015;28;20425;-76
2021/07/22 12:12:31;;;;;;;4.32;2.95;;;29.70;44.90;;;;;;4991438;28;20377;-81
2021/07/22 12:15:08;;;;;;;8.38;2.92;;;29.80;44.80;;;;;;4991260;28;20037;-81
2021/07/22 12:17:36;;;;;;;3.65;2.90;;;29.80;44.20;;;;;;4990882;28;20031;-82
2021/07/22 12:20:03;;;;;;;5.65;3.20;;;29.90;43.90;;;;;;4993977;28;20137;-81
2021/07/22 12:22:32;;;;;;;8.68;3.30;;;29.80;43.60;;;;;;4994537;28;20541;-81
2021/07/22 12:25:07;;;;;;;4.97;3.08;;;29.80;43.70;;;;;;4994632;28;20076;-81
2021/07/22 12:27:43;;;;;;;6.25;3.05;;;29.70;43.50;;;;;;4994315;28;20022;-76
2021/07/22 12:30:32;;;;;;;7.25;2.97;;;29.70;43.70;;;;;;4995004;28;20343;-81
2021/07/22 12:33:04;;;;;;;4.97;2.83;;;29.60;43.30;;;;;;4977225;28;20786;-81
2021/07/22 12:35:42;;;;;;;7.22;3.45;;;29.50;43.20;;;;;;4994589;28;20496;-81
2021/07/22 12:38:09;;;;;;;4.78;2.58;;;29.40;43.00;;;;;;4994253;28;20120;-81
2021/07/22 12:40:37;;;;;;;5.05;2.83;;;29.30;43.20;;;;;;4994236;28;20436;-81
2021/07/22 12:43:08;;;;;;;7.30;2.90;;;29.20;43.60;;;;;;4994482;28;20483;-81
2021/07/22 12:45:34;;;;;;;11.35;3.17;;;29.00;43.60;;;;;;4994285;28;20125;-81
2021/07/22 12:48:00;;;;;;;10.02;3.65;;;28.90;43.90;;;;;;4976564;28;20046;-81